sensor_id;sensor_type;location;lat;lon;timestamp;P1;durP1;ratioP1;P2;durP2;ratioP2
70150;SDS011;57517;43.562;19.540;2022-07-29T00:00:41;9.93;;;7.88;;
70150;SDS011;57517;43.562;19.540;2022-07-29T00:03:10;9.23;;;7.88;;
70150;SDS011;57517;43.562;19.540;2022-07-29T00:05:41;8.77;;;7.50;;
70150;SDS011;57517;43.562;19.540;2022-07-29T00:08:07;10.10;;;8.38;;
70150;SDS011;57517;43.562;19.540;2022-07-29T00:10:34;9.32;;;7.97;;
70150;SDS011;57517;43.562;19.540;2022-07-29T00:13:00;9.73;;;8.27;;
70150;SDS011;57517;43.562;19.540;2022-07-29T00:15:27;9.55;;;7.57;;
70150;SDS011;57517;43.562;19.540;2022-07-29T00:17:53;12.05;;;7.65;;
70150;SDS011;57517;43.562;19.540;2022-07-29T00:20:19;10.80;;;8.40;;
70150;SDS011;57517;43.562;19.540;2022-07-29T00:22:45;9.23;;;7.97;;
70150;SDS011;57517;43.562;19.540;2022-07-29T00:25:11;10.63;;;8.32;;
70150;SDS011;57517;43.562;19.540;2022-07-29T00:27:38;13.32;;;9.38;;
70150;SDS011;57517;43.562;19.540;2022-07-29T00:30:04;11.02;;;9.02;;
70150;SDS011;57517;43.562;19.540;2022-07-29T00:32:31;12.48;;;10.48;;
70150;SDS011;57517;43.562;19.540;2022-07-29T00:34:56;10.30;;;8.80;;
70150;SDS011;57517;43.562;19.540;2022-07-29T00:37:41;9.95;;;8.95;;
70150;SDS011;57517;43.562;19.540;2022-07-29T00:40:07;11.02;;;9.55;;
70150;SDS011;57517;43.562;19.540;2022-07-29T00:42:46;13.82;;;9.52;;
70150;SDS011;57517;43.562;19.540;2022-07-29T00:45:14;12.63;;;9.80;;
70150;SDS011;57517;43.562;19.540;2022-07-29T00:47:41;11.98;;;9.10;;
70150;SDS011;57517;43.562;19.540;2022-07-29T00:50:08;10.40;;;9.07;;
70150;SDS011;57517;43.562;19.540;2022-07-29T00:52:36;10.57;;;8.50;;
70150;SDS011;57517;43.562;19.540;2022-07-29T00:55:03;9.18;;;8.13;;
70150;SDS011;57517;43.562;19.540;2022-07-29T00:57:30;11.20;;;9.43;;
70150;SDS011;57517;43.562;19.540;2022-07-29T00:59:57;10.65;;;8.80;;
70150;SDS011;57517;43.562;19.540;2022-07-29T01:02:22;11.45;;;8.65;;
70150;SDS011;57517;43.562;19.540;2022-07-29T01:04:48;9.98;;;8.18;;
70150;SDS011;57517;43.562;19.540;2022-07-29T01:07:15;10.60;;;8.23;;
70150;SDS011;57517;43.562;19.540;2022-07-29T01:09:42;10.60;;;8.35;;
70150;SDS011;57517;43.562;19.540;2022-07-29T01:12:09;10.98;;;8.75;;
70150;SDS011;57517;43.562;19.540;2022-07-29T01:14:37;9.95;;;8.02;;
70150;SDS011;57517;43.562;19.540;2022-07-29T01:17:10;10.52;;;8.30;;
70150;SDS011;57517;43.562;19.540;2022-07-29T01:30:25;10.73;;;8.80;;
70150;SDS011;57517;43.562;19.540;2022-07-29T01:32:54;9.43;;;7.45;;
70150;SDS011;57517;43.562;19.540;2022-07-29T01:35:26;10.23;;;8.57;;
70150;SDS011;57517;43.562;19.540;2022-07-29T01:38:12;12.02;;;8.65;;
70150;SDS011;57517;43.562;19.540;2022-07-29T01:40:51;10.52;;;8.32;;
70150;SDS011;57517;43.562;19.540;2022-07-29T01:43:21;10.30;;;8.70;;
70150;SDS011;57517;43.562;19.540;2022-07-29T01:45:56;10.35;;;8.52;;
70150;SDS011;57517;43.562;19.540;2022-07-29T01:51:37;9.45;;;8.48;;
70150;SDS011;57517;43.562;19.540;2022-07-29T01:56:49;10.95;;;8.95;;
70150;SDS011;57517;43.562;19.540;2022-07-29T01:59:18;10.95;;;9.60;;
70150;SDS011;57517;43.562;19.540;2022-07-29T02:01:46;10.35;;;8.52;;
70150;SDS011;57517;43.562;19.540;2022-07-29T02:04:15;12.48;;;9.05;;
70150;SDS011;57517;43.562;19.540;2022-07-29T02:06:44;10.70;;;9.48;;
70150;SDS011;57517;43.562;19.540;2022-07-29T02:09:11;11.57;;;8.57;;
70150;SDS011;57517;43.562;19.540;2022-07-29T02:11:40;10.13;;;8.88;;
70150;SDS011;57517;43.562;19.540;2022-07-29T02:14:13;10.40;;;8.55;;
70150;SDS011;57517;43.562;19.540;2022-07-29T02:16:41;10.82;;;8.70;;
70150;SDS011;57517;43.562;19.540;2022-07-29T02:19:08;11.77;;;8.55;;
70150;SDS011;57517;43.562;19.540;2022-07-29T02:21:37;9.80;;;8.65;;
70150;SDS011;57517;43.562;19.540;2022-07-29T02:24:03;11.18;;;8.10;;
70150;SDS011;57517;43.562;19.540;2022-07-29T02:26:30;9.25;;;7.93;;
70150;SDS011;57517;43.562;19.540;2022-07-29T02:28:58;10.52;;;8.07;;
70150;SDS011;57517;43.562;19.540;2022-07-29T02:31:32;10.38;;;7.97;;
70150;SDS011;57517;43.562;19.540;2022-07-29T02:34:02;9.02;;;8.00;;
70150;SDS011;57517;43.562;19.540;2022-07-29T02:36:31;9.13;;;8.10;;
70150;SDS011;57517;43.562;19.540;2022-07-29T02:38:58;10.10;;;8.10;;
70150;SDS011;57517;43.562;19.540;2022-07-29T02:41:30;9.93;;;8.13;;
70150;SDS011;57517;43.562;19.540;2022-07-29T02:44:06;11.05;;;8.27;;
70150;SDS011;57517;43.562;19.540;2022-07-29T02:46:35;10.75;;;8.75;;
70150;SDS011;57517;43.562;19.540;2022-07-29T02:49:05;8.93;;;7.88;;
70150;SDS011;57517;43.562;19.540;2022-07-29T02:51:45;9.43;;;8.43;;
70150;SDS011;57517;43.562;19.540;2022-07-29T02:54:29;10.63;;;8.68;;
70150;SDS011;57517;43.562;19.540;2022-07-29T02:57:04;9.60;;;7.68;;
70150;SDS011;57517;43.562;19.540;2022-07-29T02:59:36;9.85;;;8.07;;
70150;SDS011;57517;43.562;19.540;2022-07-29T03:02:05;9.82;;;7.38;;
70150;SDS011;57517;43.562;19.540;2022-07-29T03:04:33;10.32;;;8.93;;
70150;SDS011;57517;43.562;19.540;2022-07-29T03:07:00;10.35;;;7.88;;
70150;SDS011;57517;43.562;19.540;2022-07-29T03:09:27;9.27;;;7.75;;
70150;SDS011;57517;43.562;19.540;2022-07-29T03:11:53;9.70;;;8.18;;
70150;SDS011;57517;43.562;19.540;2022-07-29T03:14:21;8.88;;;7.85;;
70150;SDS011;57517;43.562;19.540;2022-07-29T03:16:48;10.18;;;8.73;;
70150;SDS011;57517;43.562;19.540;2022-07-29T03:19:15;9.73;;;8.05;;
70150;SDS011;57517;43.562;19.540;2022-07-29T03:21:42;13.38;;;8.48;;
70150;SDS011;57517;43.562;19.540;2022-07-29T03:24:08;9.38;;;7.57;;
70150;SDS011;57517;43.562;19.540;2022-07-29T03:26:34;11.05;;;8.43;;
70150;SDS011;57517;43.562;19.540;2022-07-29T03:28:59;9.75;;;8.20;;
70150;SDS011;57517;43.562;19.540;2022-07-29T03:31:25;10.45;;;8.32;;
70150;SDS011;57517;43.562;19.540;2022-07-29T03:33:51;12.02;;;8.27;;
70150;SDS011;57517;43.562;19.540;2022-07-29T03:36:17;12.23;;;8.35;;
70150;SDS011;57517;43.562;19.540;2022-07-29T03:38:43;9.50;;;7.78;;
70150;SDS011;57517;43.562;19.540;2022-07-29T03:41:11;11.00;;;8.93;;
70150;SDS011;57517;43.562;19.540;2022-07-29T03:43:39;10.65;;;9.27;;
70150;SDS011;57517;43.562;19.540;2022-07-29T03:46:07;12.48;;;9.32;;
70150;SDS011;57517;43.562;19.540;2022-07-29T03:48:34;12.77;;;9.25;;
70150;SDS011;57517;43.562;19.540;2022-07-29T03:51:04;13.00;;;9.63;;
70150;SDS011;57517;43.562;19.540;2022-07-29T03:53:31;13.43;;;10.10;;
70150;SDS011;57517;43.562;19.540;2022-07-29T03:55:58;11.35;;;9.77;;
70150;SDS011;57517;43.562;19.540;2022-07-29T03:58:26;13.32;;;9.60;;
70150;SDS011;57517;43.562;19.540;2022-07-29T04:00:53;14.85;;;10.55;;
70150;SDS011;57517;43.562;19.540;2022-07-29T04:03:20;13.13;;;10.50;;
70150;SDS011;57517;43.562;19.540;2022-07-29T04:05:57;14.23;;;10.57;;
70150;SDS011;57517;43.562;19.540;2022-07-29T04:08:33;12.82;;;10.20;;
70150;SDS011;57517;43.562;19.540;2022-07-29T04:11:00;13.32;;;10.88;;
70150;SDS011;57517;43.562;19.540;2022-07-29T04:13:26;15.32;;;11.15;;
70150;SDS011;57517;43.562;19.540;2022-07-29T04:15:52;12.65;;;10.38;;
70150;SDS011;57517;43.562;19.540;2022-07-29T04:18:18;14.68;;;10.82;;
70150;SDS011;57517;43.562;19.540;2022-07-29T04:20:44;13.07;;;10.52;;
70150;SDS011;57517;43.562;19.540;2022-07-29T04:23:10;14.43;;;10.43;;
70150;SDS011;57517;43.562;19.540;2022-07-29T04:25:39;12.60;;;10.40;;
70150;SDS011;57517;43.562;19.540;2022-07-29T04:28:06;11.70;;;9.68;;
70150;SDS011;57517;43.562;19.540;2022-07-29T04:30:33;13.25;;;10.75;;
70150;SDS011;57517;43.562;19.540;2022-07-29T04:33:01;15.23;;;11.15;;
70150;SDS011;57517;43.562;19.540;2022-07-29T04:35:28;11.55;;;9.63;;
70150;SDS011;57517;43.562;19.540;2022-07-29T04:37:54;14.63;;;10.45;;
70150;SDS011;57517;43.562;19.540;2022-07-29T04:40:20;15.35;;;10.70;;
70150;SDS011;57517;43.562;19.540;2022-07-29T04:42:46;13.63;;;10.40;;
70150;SDS011;57517;43.562;19.540;2022-07-29T04:45:12;13.45;;;11.23;;
70150;SDS011;57517;43.562;19.540;2022-07-29T04:47:38;16.27;;;11.68;;
70150;SDS011;57517;43.562;19.540;2022-07-29T04:50:05;12.88;;;10.88;;
70150;SDS011;57517;43.562;19.540;2022-07-29T04:52:32;13.45;;;11.02;;
70150;SDS011;57517;43.562;19.540;2022-07-29T04:54:58;13.45;;;10.25;;
70150;SDS011;57517;43.562;19.540;2022-07-29T04:57:23;13.05;;;10.63;;
70150;SDS011;57517;43.562;19.540;2022-07-29T04:59:49;12.80;;;10.20;;
70150;SDS011;57517;43.562;19.540;2022-07-29T05:02:15;14.25;;;10.43;;
70150;SDS011;57517;43.562;19.540;2022-07-29T05:04:41;14.40;;;10.95;;
70150;SDS011;57517;43.562;19.540;2022-07-29T05:07:07;14.80;;;11.70;;
70150;SDS011;57517;43.562;19.540;2022-07-29T05:09:32;14.95;;;11.18;;
70150;SDS011;57517;43.562;19.540;2022-07-29T05:11:58;13.32;;;10.68;;
70150;SDS011;57517;43.562;19.540;2022-07-29T05:14:24;15.07;;;11.38;;
70150;SDS011;57517;43.562;19.540;2022-07-29T05:16:50;11.52;;;10.13;;
70150;SDS011;57517;43.562;19.540;2022-07-29T05:19:16;14.88;;;11.32;;
70150;SDS011;57517;43.562;19.540;2022-07-29T05:21:44;15.68;;;12.57;;
70150;SDS011;57517;43.562;19.540;2022-07-29T05:24:10;16.10;;;11.90;;
70150;SDS011;57517;43.562;19.540;2022-07-29T05:26:36;14.60;;;11.93;;
70150;SDS011;57517;43.562;19.540;2022-07-29T05:29:02;15.60;;;12.15;;
70150;SDS011;57517;43.562;19.540;2022-07-29T05:31:28;16.98;;;11.80;;
70150;SDS011;57517;43.562;19.540;2022-07-29T05:33:53;15.55;;;10.38;;
70150;SDS011;57517;43.562;19.540;2022-07-29T05:36:19;17.08;;;13.07;;
70150;SDS011;57517;43.562;19.540;2022-07-29T05:38:45;15.43;;;12.45;;
70150;SDS011;57517;43.562;19.540;2022-07-29T05:41:11;14.13;;;10.68;;
70150;SDS011;57517;43.562;19.540;2022-07-29T05:43:37;14.45;;;11.85;;
70150;SDS011;57517;43.562;19.540;2022-07-29T05:46:02;14.13;;;12.27;;
70150;SDS011;57517;43.562;19.540;2022-07-29T05:48:28;16.30;;;11.70;;
70150;SDS011;57517;43.562;19.540;2022-07-29T05:50:54;15.52;;;12.55;;
70150;SDS011;57517;43.562;19.540;2022-07-29T05:53:20;14.30;;;11.48;;
70150;SDS011;57517;43.562;19.540;2022-07-29T05:55:47;13.35;;;11.63;;
70150;SDS011;57517;43.562;19.540;2022-07-29T05:58:13;16.83;;;12.18;;
70150;SDS011;57517;43.562;19.540;2022-07-29T06:00:39;13.13;;;10.75;;
70150;SDS011;57517;43.562;19.540;2022-07-29T06:03:05;13.82;;;11.50;;
70150;SDS011;57517;43.562;19.540;2022-07-29T06:05:31;13.70;;;11.75;;
70150;SDS011;57517;43.562;19.540;2022-07-29T06:07:56;15.77;;;11.85;;
70150;SDS011;57517;43.562;19.540;2022-07-29T06:10:22;11.93;;;10.73;;
70150;SDS011;57517;43.562;19.540;2022-07-29T06:12:49;12.45;;;11.20;;
70150;SDS011;57517;43.562;19.540;2022-07-29T06:15:15;12.57;;;11.27;;
70150;SDS011;57517;43.562;19.540;2022-07-29T06:17:41;12.50;;;11.15;;
70150;SDS011;57517;43.562;19.540;2022-07-29T06:20:07;27.80;;;25.10;;
70150;SDS011;57517;43.562;19.540;2022-07-29T06:22:33;14.88;;;13.38;;
70150;SDS011;57517;43.562;19.540;2022-07-29T06:24:59;12.43;;;11.15;;
70150;SDS011;57517;43.562;19.540;2022-07-29T06:27:26;14.90;;;13.50;;
70150;SDS011;57517;43.562;19.540;2022-07-29T06:29:52;14.85;;;12.95;;
70150;SDS011;57517;43.562;19.540;2022-07-29T06:32:19;28.77;;;22.75;;
70150;SDS011;57517;43.562;19.540;2022-07-29T06:34:45;13.35;;;11.95;;
70150;SDS011;57517;43.562;19.540;2022-07-29T06:37:10;12.90;;;10.80;;
70150;SDS011;57517;43.562;19.540;2022-07-29T06:39:36;12.13;;;11.10;;
70150;SDS011;57517;43.562;19.540;2022-07-29T06:42:06;12.35;;;11.30;;
70150;SDS011;57517;43.562;19.540;2022-07-29T06:44:32;22.05;;;20.05;;
70150;SDS011;57517;43.562;19.540;2022-07-29T06:47:01;16.83;;;15.32;;
70150;SDS011;57517;43.562;19.540;2022-07-29T06:49:27;25.52;;;23.20;;
70150;SDS011;57517;43.562;19.540;2022-07-29T06:51:54;13.60;;;12.38;;
70150;SDS011;57517;43.562;19.540;2022-07-29T06:54:20;13.77;;;12.57;;
70150;SDS011;57517;43.562;19.540;2022-07-29T06:56:47;12.68;;;11.65;;
70150;SDS011;57517;43.562;19.540;2022-07-29T06:59:13;14.43;;;13.23;;
70150;SDS011;57517;43.562;19.540;2022-07-29T07:01:40;14.60;;;13.50;;
70150;SDS011;57517;43.562;19.540;2022-07-29T07:04:07;15.98;;;14.57;;
70150;SDS011;57517;43.562;19.540;2022-07-29T07:06:36;14.65;;;13.35;;
70150;SDS011;57517;43.562;19.540;2022-07-29T07:09:03;12.45;;;11.18;;
70150;SDS011;57517;43.562;19.540;2022-07-29T07:11:29;10.95;;;9.82;;
70150;SDS011;57517;43.562;19.540;2022-07-29T07:13:55;9.18;;;8.25;;
70150;SDS011;57517;43.562;19.540;2022-07-29T07:16:21;10.00;;;9.00;;
70150;SDS011;57517;43.562;19.540;2022-07-29T07:18:47;10.32;;;9.18;;
70150;SDS011;57517;43.562;19.540;2022-07-29T07:21:13;11.15;;;10.05;;
70150;SDS011;57517;43.562;19.540;2022-07-29T07:23:39;9.98;;;8.98;;
70150;SDS011;57517;43.562;19.540;2022-07-29T07:26:04;15.85;;;12.95;;
70150;SDS011;57517;43.562;19.540;2022-07-29T07:28:30;17.02;;;15.23;;
70150;SDS011;57517;43.562;19.540;2022-07-29T07:30:56;22.15;;;19.95;;
70150;SDS011;57517;43.562;19.540;2022-07-29T07:33:22;15.00;;;11.63;;
70150;SDS011;57517;43.562;19.540;2022-07-29T07:35:48;9.77;;;8.77;;
70150;SDS011;57517;43.562;19.540;2022-07-29T07:38:14;10.05;;;8.85;;
70150;SDS011;57517;43.562;19.540;2022-07-29T07:40:40;15.93;;;14.23;;
70150;SDS011;57517;43.562;19.540;2022-07-29T07:43:06;20.63;;;18.50;;
70150;SDS011;57517;43.562;19.540;2022-07-29T07:45:32;10.27;;;9.07;;
70150;SDS011;57517;43.562;19.540;2022-07-29T07:47:58;35.22;;;31.45;;
70150;SDS011;57517;43.562;19.540;2022-07-29T07:50:24;29.88;;;26.45;;
70150;SDS011;57517;43.562;19.540;2022-07-29T07:52:52;19.38;;;17.17;;
70150;SDS011;57517;43.562;19.540;2022-07-29T07:55:22;13.13;;;11.80;;
70150;SDS011;57517;43.562;19.540;2022-07-29T07:57:48;15.10;;;13.55;;
70150;SDS011;57517;43.562;19.540;2022-07-29T08:00:15;20.45;;;18.35;;
70150;SDS011;57517;43.562;19.540;2022-07-29T08:02:41;11.15;;;9.82;;
70150;SDS011;57517;43.562;19.540;2022-07-29T08:05:08;9.85;;;7.97;;
70150;SDS011;57517;43.562;19.540;2022-07-29T08:07:35;10.30;;;7.72;;
70150;SDS011;57517;43.562;19.540;2022-07-29T08:10:01;13.07;;;9.10;;
70150;SDS011;57517;43.562;19.540;2022-07-29T08:12:27;8.60;;;7.32;;
70150;SDS011;57517;43.562;19.540;2022-07-29T08:14:53;11.85;;;9.50;;
70150;SDS011;57517;43.562;19.540;2022-07-29T08:17:19;12.38;;;10.30;;
70150;SDS011;57517;43.562;19.540;2022-07-29T08:19:45;10.43;;;8.77;;
70150;SDS011;57517;43.562;19.540;2022-07-29T08:22:12;10.80;;;8.88;;
70150;SDS011;57517;43.562;19.540;2022-07-29T08:24:39;10.90;;;8.45;;
70150;SDS011;57517;43.562;19.540;2022-07-29T08:27:21;9.90;;;8.57;;
70150;SDS011;57517;43.562;19.540;2022-07-29T08:29:47;11.15;;;9.57;;
70150;SDS011;57517;43.562;19.540;2022-07-29T08:32:13;11.20;;;8.85;;
70150;SDS011;57517;43.562;19.540;2022-07-29T08:34:39;10.45;;;9.07;;
70150;SDS011;57517;43.562;19.540;2022-07-29T08:37:05;11.05;;;9.05;;
70150;SDS011;57517;43.562;19.540;2022-07-29T08:39:31;18.27;;;15.75;;
70150;SDS011;57517;43.562;19.540;2022-07-29T08:41:57;14.95;;;12.35;;
70150;SDS011;57517;43.562;19.540;2022-07-29T08:44:23;28.58;;;19.55;;
70150;SDS011;57517;43.562;19.540;2022-07-29T08:46:49;30.70;;;27.48;;
70150;SDS011;57517;43.562;19.540;2022-07-29T08:49:15;33.92;;;30.52;;
70150;SDS011;57517;43.562;19.540;2022-07-29T08:51:42;38.30;;;34.50;;
70150;SDS011;57517;43.562;19.540;2022-07-29T08:54:09;40.22;;;36.08;;
70150;SDS011;57517;43.562;19.540;2022-07-29T08:56:35;31.27;;;28.10;;
70150;SDS011;57517;43.562;19.540;2022-07-29T08:59:03;34.15;;;30.92;;
70150;SDS011;57517;43.562;19.540;2022-07-29T09:01:30;30.13;;;26.98;;
70150;SDS011;57517;43.562;19.540;2022-07-29T09:03:59;26.80;;;24.23;;
70150;SDS011;57517;43.562;19.540;2022-07-29T09:06:27;33.42;;;29.90;;
70150;SDS011;57517;43.562;19.540;2022-07-29T09:08:58;21.77;;;19.67;;
70150;SDS011;57517;43.562;19.540;2022-07-29T09:11:25;14.05;;;12.65;;
70150;SDS011;57517;43.562;19.540;2022-07-29T09:13:51;14.82;;;12.27;;
70150;SDS011;57517;43.562;19.540;2022-07-29T09:16:17;15.85;;;14.15;;
70150;SDS011;57517;43.562;19.540;2022-07-29T09:18:44;11.90;;;10.52;;
70150;SDS011;57517;43.562;19.540;2022-07-29T09:21:11;16.13;;;14.55;;
70150;SDS011;57517;43.562;19.540;2022-07-29T09:24:10;11.45;;;10.23;;
70150;SDS011;57517;43.562;19.540;2022-07-29T09:26:43;20.05;;;17.95;;
70150;SDS011;57517;43.562;19.540;2022-07-29T09:29:14;10.98;;;9.70;;
70150;SDS011;57517;43.562;19.540;2022-07-29T09:31:43;10.88;;;9.77;;
70150;SDS011;57517;43.562;19.540;2022-07-29T09:34:10;14.18;;;10.07;;
70150;SDS011;57517;43.562;19.540;2022-07-29T09:36:48;16.77;;;15.05;;
70150;SDS011;57517;43.562;19.540;2022-07-29T09:39:15;18.90;;;16.90;;
70150;SDS011;57517;43.562;19.540;2022-07-29T09:41:53;13.00;;;10.23;;
70150;SDS011;57517;43.562;19.540;2022-07-29T09:44:21;13.35;;;11.95;;
70150;SDS011;57517;43.562;19.540;2022-07-29T09:46:54;11.98;;;10.73;;
70150;SDS011;57517;43.562;19.540;2022-07-29T09:49:27;16.77;;;15.07;;
70150;SDS011;57517;43.562;19.540;2022-07-29T09:52:00;24.23;;;18.27;;
70150;SDS011;57517;43.562;19.540;2022-07-29T09:54:34;9.85;;;8.85;;
70150;SDS011;57517;43.562;19.540;2022-07-29T09:57:04;9.65;;;8.65;;
70150;SDS011;57517;43.562;19.540;2022-07-29T10:02:12;17.77;;;14.75;;
70150;SDS011;57517;43.562;19.540;2022-07-29T10:04:42;13.48;;;12.07;;
70150;SDS011;57517;43.562;19.540;2022-07-29T10:07:08;10.13;;;9.13;;
70150;SDS011;57517;43.562;19.540;2022-07-29T10:09:34;12.77;;;10.70;;
70150;SDS011;57517;43.562;19.540;2022-07-29T10:14:32;11.50;;;8.80;;
70150;SDS011;57517;43.562;19.540;2022-07-29T10:17:01;10.52;;;9.50;;
70150;SDS011;57517;43.562;19.540;2022-07-29T10:19:29;14.55;;;12.93;;
70150;SDS011;57517;43.562;19.540;2022-07-29T10:21:57;12.98;;;11.13;;
70150;SDS011;57517;43.562;19.540;2022-07-29T10:24:24;14.35;;;12.35;;
70150;SDS011;57517;43.562;19.540;2022-07-29T10:26:57;11.32;;;9.85;;
70150;SDS011;57517;43.562;19.540;2022-07-29T10:29:24;10.40;;;9.25;;
70150;SDS011;57517;43.562;19.540;2022-07-29T10:43:22;9.43;;;7.45;;
70150;SDS011;57517;43.562;19.540;2022-07-29T10:45:55;9.43;;;8.52;;
70150;SDS011;57517;43.562;19.540;2022-07-29T10:48:23;10.63;;;9.57;;
70150;SDS011;57517;43.562;19.540;2022-07-29T10:50:56;9.00;;;8.10;;
70150;SDS011;57517;43.562;19.540;2022-07-29T10:56:27;10.65;;;9.23;;
70150;SDS011;57517;43.562;19.540;2022-07-29T11:01:51;18.35;;;15.88;;
70150;SDS011;57517;43.562;19.540;2022-07-29T11:05:04;9.70;;;8.02;;
70150;SDS011;57517;43.562;19.540;2022-07-29T11:07:10;9.00;;;6.53;;
70150;SDS011;57517;43.562;19.540;2022-07-29T11:09:37;8.35;;;6.47;;
70150;SDS011;57517;43.562;19.540;2022-07-29T11:12:04;7.80;;;6.97;;
70150;SDS011;57517;43.562;19.540;2022-07-29T11:15:01;8.02;;;6.68;;
70150;SDS011;57517;43.562;19.540;2022-07-29T11:17:28;7.13;;;6.30;;
70150;SDS011;57517;43.562;19.540;2022-07-29T11:23:23;7.25;;;6.22;;
70150;SDS011;57517;43.562;19.540;2022-07-29T11:39:32;9.20;;;6.45;;
70150;SDS011;57517;43.562;19.540;2022-07-29T11:45:23;8.98;;;7.38;;
70150;SDS011;57517;43.562;19.540;2022-07-29T11:50:14;8.18;;;7.38;;
70150;SDS011;57517;43.562;19.540;2022-07-29T11:52:44;9.02;;;7.22;;
70150;SDS011;57517;43.562;19.540;2022-07-29T11:55:18;8.90;;;8.05;;
70150;SDS011;57517;43.562;19.540;2022-07-29T11:57:51;9.73;;;7.95;;
70150;SDS011;57517;43.562;19.540;2022-07-29T12:00:28;13.40;;;9.80;;
70150;SDS011;57517;43.562;19.540;2022-07-29T12:02:56;8.68;;;7.78;;
70150;SDS011;57517;43.562;19.540;2022-07-29T12:05:30;7.88;;;7.07;;
70150;SDS011;57517;43.562;19.540;2022-07-29T12:10:52;7.45;;;6.68;;
70150;SDS011;57517;43.562;19.540;2022-07-29T12:13:19;7.47;;;6.78;;
70150;SDS011;57517;43.562;19.540;2022-07-29T12:15:52;10.65;;;9.07;;
70150;SDS011;57517;43.562;19.540;2022-07-29T12:18:22;8.20;;;6.93;;
70150;SDS011;57517;43.562;19.540;2022-07-29T12:20:49;8.93;;;8.02;;
70150;SDS011;57517;43.562;19.540;2022-07-29T12:23:27;12.60;;;9.60;;
70150;SDS011;57517;43.562;19.540;2022-07-29T12:25:53;9.88;;;8.45;;
70150;SDS011;57517;43.562;19.540;2022-07-29T12:28:19;10.10;;;9.00;;
70150;SDS011;57517;43.562;19.540;2022-07-29T12:30:49;10.40;;;8.30;;
70150;SDS011;57517;43.562;19.540;2022-07-29T12:35:45;11.68;;;9.88;;
70150;SDS011;57517;43.562;19.540;2022-07-29T12:38:13;10.38;;;9.27;;
70150;SDS011;57517;43.562;19.540;2022-07-29T12:40:40;15.68;;;11.50;;
70150;SDS011;57517;43.562;19.540;2022-07-29T12:45:37;160.48;;;71.15;;
70150;SDS011;57517;43.562;19.540;2022-07-29T12:48:04;345.73;;;178.75;;
70150;SDS011;57517;43.562;19.540;2022-07-29T12:50:31;276.00;;;132.15;;
70150;SDS011;57517;43.562;19.540;2022-07-29T12:53:12;50.53;;;27.45;;
70150;SDS011;57517;43.562;19.540;2022-07-29T12:55:42;57.88;;;31.83;;
70150;SDS011;57517;43.562;19.540;2022-07-29T12:58:10;53.65;;;26.50;;
70150;SDS011;57517;43.562;19.540;2022-07-29T13:00:36;77.53;;;41.08;;
70150;SDS011;57517;43.562;19.540;2022-07-29T13:03:02;80.43;;;43.10;;
70150;SDS011;57517;43.562;19.540;2022-07-29T13:05:43;11.70;;;10.32;;
70150;SDS011;57517;43.562;19.540;2022-07-29T13:08:16;10.50;;;9.50;;
70150;SDS011;57517;43.562;19.540;2022-07-29T13:10:45;21.35;;;19.15;;
70150;SDS011;57517;43.562;19.540;2022-07-29T13:13:12;11.70;;;9.43;;
70150;SDS011;57517;43.562;19.540;2022-07-29T13:15:42;10.32;;;9.05;;
70150;SDS011;57517;43.562;19.540;2022-07-29T13:20:55;9.90;;;8.90;;
70150;SDS011;57517;43.562;19.540;2022-07-29T13:23:22;9.60;;;8.60;;
70150;SDS011;57517;43.562;19.540;2022-07-29T13:25:48;10.07;;;9.13;;
70150;SDS011;57517;43.562;19.540;2022-07-29T13:28:14;10.98;;;9.57;;
70150;SDS011;57517;43.562;19.540;2022-07-29T13:30:40;9.35;;;8.45;;
70150;SDS011;57517;43.562;19.540;2022-07-29T13:33:06;11.63;;;8.07;;
70150;SDS011;57517;43.562;19.540;2022-07-29T13:35:32;10.65;;;9.23;;
70150;SDS011;57517;43.562;19.540;2022-07-29T13:37:58;10.40;;;9.40;;
70150;SDS011;57517;43.562;19.540;2022-07-29T13:40:24;10.25;;;8.73;;
70150;SDS011;57517;43.562;19.540;2022-07-29T13:42:50;10.35;;;8.45;;
70150;SDS011;57517;43.562;19.540;2022-07-29T13:45:16;8.52;;;7.65;;
70150;SDS011;57517;43.562;19.540;2022-07-29T13:47:42;9.15;;;8.07;;
70150;SDS011;57517;43.562;19.540;2022-07-29T13:50:10;15.27;;;12.43;;
70150;SDS011;57517;43.562;19.540;2022-07-29T13:52:36;16.55;;;15.10;;
70150;SDS011;57517;43.562;19.540;2022-07-29T13:55:03;14.60;;;13.20;;
70150;SDS011;57517;43.562;19.540;2022-07-29T13:57:29;16.33;;;14.77;;
70150;SDS011;57517;43.562;19.540;2022-07-29T13:59:56;10.60;;;9.60;;
70150;SDS011;57517;43.562;19.540;2022-07-29T14:02:22;21.88;;;19.90;;
70150;SDS011;57517;43.562;19.540;2022-07-29T14:04:48;49.67;;;44.83;;
70150;SDS011;57517;43.562;19.540;2022-07-29T14:07:14;24.27;;;22.13;;
70150;SDS011;57517;43.562;19.540;2022-07-29T14:09:40;18.25;;;16.42;;
70150;SDS011;57517;43.562;19.540;2022-07-29T14:12:06;13.55;;;12.23;;
70150;SDS011;57517;43.562;19.540;2022-07-29T14:14:33;9.52;;;8.23;;
70150;SDS011;57517;43.562;19.540;2022-07-29T14:17:00;9.13;;;8.23;;
70150;SDS011;57517;43.562;19.540;2022-07-29T14:19:28;10.73;;;9.73;;
70150;SDS011;57517;43.562;19.540;2022-07-29T14:21:53;8.90;;;7.95;;
70150;SDS011;57517;43.562;19.540;2022-07-29T14:24:19;9.73;;;8.63;;
70150;SDS011;57517;43.562;19.540;2022-07-29T14:26:45;8.93;;;7.78;;
70150;SDS011;57517;43.562;19.540;2022-07-29T14:29:11;10.90;;;9.80;;
70150;SDS011;57517;43.562;19.540;2022-07-29T14:31:37;8.35;;;7.20;;
70150;SDS011;57517;43.562;19.540;2022-07-29T14:34:03;11.85;;;10.55;;
70150;SDS011;57517;43.562;19.540;2022-07-29T14:36:28;10.52;;;9.27;;
70150;SDS011;57517;43.562;19.540;2022-07-29T14:38:54;18.25;;;16.55;;
70150;SDS011;57517;43.562;19.540;2022-07-29T14:41:20;10.93;;;9.73;;
70150;SDS011;57517;43.562;19.540;2022-07-29T14:43:46;10.63;;;7.85;;
70150;SDS011;57517;43.562;19.540;2022-07-29T14:46:12;8.95;;;6.97;;
70150;SDS011;57517;43.562;19.540;2022-07-29T14:48:38;8.55;;;7.65;;
70150;SDS011;57517;43.562;19.540;2022-07-29T14:51:04;9.80;;;6.82;;
70150;SDS011;57517;43.562;19.540;2022-07-29T14:53:30;8.35;;;7.45;;
70150;SDS011;57517;43.562;19.540;2022-07-29T14:55:56;10.25;;;7.63;;
70150;SDS011;57517;43.562;19.540;2022-07-29T14:58:22;7.85;;;6.80;;
70150;SDS011;57517;43.562;19.540;2022-07-29T15:00:48;9.00;;;6.93;;
70150;SDS011;57517;43.562;19.540;2022-07-29T15:03:14;10.05;;;5.78;;
70150;SDS011;57517;43.562;19.540;2022-07-29T15:05:39;7.10;;;5.47;;
70150;SDS011;57517;43.562;19.540;2022-07-29T15:08:06;7.20;;;6.50;;
70150;SDS011;57517;43.562;19.540;2022-07-29T15:10:33;7.22;;;5.82;;
70150;SDS011;57517;43.562;19.540;2022-07-29T15:12:59;8.02;;;5.60;;
70150;SDS011;57517;43.562;19.540;2022-07-29T15:15:25;7.78;;;6.22;;
70150;SDS011;57517;43.562;19.540;2022-07-29T15:17:52;7.75;;;5.93;;
70150;SDS011;57517;43.562;19.540;2022-07-29T15:20:18;7.80;;;6.30;;
70150;SDS011;57517;43.562;19.540;2022-07-29T15:22:44;8.65;;;6.78;;
70150;SDS011;57517;43.562;19.540;2022-07-29T15:25:10;10.93;;;8.27;;
70150;SDS011;57517;43.562;19.540;2022-07-29T15:27:36;9.80;;;6.75;;
70150;SDS011;57517;43.562;19.540;2022-07-29T15:30:02;9.20;;;6.10;;
70150;SDS011;57517;43.562;19.540;2022-07-29T15:32:28;8.43;;;6.45;;
70150;SDS011;57517;43.562;19.540;2022-07-29T15:34:54;9.05;;;6.55;;